createdAt,value
2022-12-23T00:01:22.528Z,6.90
2022-12-23T00:03:50.716Z,7.13
2022-12-23T00:06:18.825Z,6.70
2022-12-23T00:08:47.370Z,6.80
2022-12-23T00:11:16.528Z,6.60
2022-12-23T00:14:01.898Z,6.57
2022-12-23T00:16:31.352Z,7.57
2022-12-23T00:18:59.588Z,7.20
2022-12-23T00:21:27.406Z,6.77
2022-12-23T00:23:55.088Z,7.00
2022-12-23T00:26:23.869Z,6.70
2022-12-23T00:28:51.855Z,6.53
2022-12-23T00:31:21.204Z,7.13
2022-12-23T00:33:51.292Z,6.77
2022-12-23T00:36:20.228Z,6.20
2022-12-23T00:39:05.927Z,6.10
2022-12-23T00:41:51.436Z,6.70
2022-12-23T00:44:19.264Z,6.60
2022-12-23T00:46:47.384Z,6.87
2022-12-23T00:49:35.143Z,7.20
2022-12-23T00:52:03.354Z,7.00
2022-12-23T00:54:31.906Z,6.20
2022-12-23T00:56:59.904Z,6.43
2022-12-23T00:59:27.884Z,7.17
2022-12-23T01:02:13.290Z,7.13
2022-12-23T01:05:15.029Z,6.40
2022-12-23T01:07:43.645Z,7.27
2022-12-23T01:10:11.933Z,6.40
2022-12-23T01:12:40.348Z,7.50
2022-12-23T01:15:09.301Z,10.27
2022-12-23T01:17:37.698Z,8.90
2022-12-23T01:20:08.484Z,9.63
2022-12-23T01:22:36.897Z,10.10
2022-12-23T01:25:05.059Z,10.47
2022-12-23T01:27:32.977Z,11.00
2022-12-23T01:30:00.982Z,11.23
2022-12-23T01:32:28.898Z,12.23
2022-12-23T01:34:57.049Z,12.20
2022-12-23T01:37:26.134Z,12.97
2022-12-23T01:39:55.067Z,12.60
2022-12-23T01:42:40.405Z,11.90
2022-12-23T01:45:15.241Z,13.50
2022-12-23T01:47:45.129Z,14.07
2022-12-23T01:50:14.317Z,14.80
2022-12-23T01:52:45.814Z,14.20
2022-12-23T01:55:15.089Z,14.47
2022-12-23T01:57:42.935Z,14.50
2022-12-23T02:00:28.832Z,15.10
2022-12-23T02:03:14.203Z,14.40
2022-12-23T02:05:43.241Z,15.93
2022-12-23T02:08:30.120Z,15.10
2022-12-23T02:11:07.426Z,16.20
2022-12-23T02:13:37.222Z,14.93
2022-12-23T02:16:17.826Z,15.20
2022-12-23T02:18:59.336Z,13.63
2022-12-23T02:21:34.044Z,15.70
2022-12-23T02:24:19.316Z,15.30
2022-12-23T02:27:01.242Z,14.40
2022-12-23T02:30:17.325Z,14.70
2022-12-23T02:32:54.389Z,14.60
2022-12-23T02:35:25.580Z,15.03
2022-12-23T02:37:56.242Z,13.40
2022-12-23T02:40:27.446Z,14.70
2022-12-23T02:42:59.820Z,13.80
2022-12-23T02:45:32.073Z,14.80
2022-12-23T02:48:02.464Z,13.43
2022-12-23T02:50:31.822Z,13.50
2022-12-23T02:53:00.931Z,12.83
2022-12-23T02:55:30.331Z,12.50
2022-12-23T02:57:58.020Z,13.30
2022-12-23T03:00:25.753Z,12.60
2022-12-23T03:02:56.498Z,12.33
2022-12-23T03:05:27.342Z,12.30
2022-12-23T03:07:56.345Z,12.77
2022-12-23T03:10:32.864Z,11.80
2022-12-23T03:13:05.098Z,12.10
2022-12-23T03:15:36.805Z,12.27
2022-12-23T03:18:05.864Z,11.90
2022-12-23T03:20:39.292Z,12.20
2022-12-23T03:23:09.108Z,11.73
2022-12-23T03:25:39.289Z,11.17
2022-12-23T03:28:11.268Z,12.60
2022-12-23T03:30:39.795Z,11.77
2022-12-23T03:33:12.361Z,11.20
2022-12-23T03:35:43.650Z,10.90
2022-12-23T03:38:11.674Z,11.67
2022-12-23T03:40:40.351Z,11.53
2022-12-23T03:43:10.795Z,10.60
2022-12-23T03:45:41.837Z,10.80
2022-12-23T03:48:12.484Z,11.00
2022-12-23T03:50:42.881Z,11.07
2022-12-23T03:53:11.847Z,10.20
2022-12-23T03:55:42.463Z,9.80
2022-12-23T03:58:13.293Z,10.00
2022-12-23T04:00:43.419Z,9.93
2022-12-23T04:03:14.287Z,9.57
2022-12-23T04:05:43.744Z,9.70
2022-12-23T04:08:12.950Z,9.77
2022-12-23T04:10:40.617Z,10.13
2022-12-23T04:13:08.865Z,10.03
2022-12-23T04:15:39.032Z,10.20
2022-12-23T04:18:07.457Z,9.00
2022-12-23T04:20:36.323Z,8.63
2022-12-23T04:23:06.351Z,9.20
2022-12-23T04:25:34.213Z,9.37
2022-12-23T04:28:02.336Z,9.20
2022-12-23T04:30:34.455Z,8.97
2022-12-23T04:33:02.967Z,8.93
2022-12-23T04:35:31.433Z,8.93
2022-12-23T04:37:59.329Z,8.80
2022-12-23T04:40:29.044Z,8.90
2022-12-23T04:42:56.894Z,8.70
2022-12-23T04:45:24.840Z,8.63
2022-12-23T04:47:54.486Z,8.27
2022-12-23T04:50:22.435Z,8.60
2022-12-23T04:52:51.047Z,8.20
2022-12-23T04:55:19.128Z,8.80
2022-12-23T04:57:48.817Z,9.10
2022-12-23T05:00:17.589Z,7.70
2022-12-23T05:02:46.043Z,8.87
2022-12-23T05:05:13.776Z,8.80
2022-12-23T05:07:41.823Z,7.70
2022-12-23T05:10:12.581Z,8.23
2022-12-23T05:12:40.658Z,8.10
2022-12-23T05:15:10.633Z,8.30
2022-12-23T05:17:38.468Z,8.17
2022-12-23T05:20:07.377Z,8.27
2022-12-23T05:22:35.096Z,8.20
2022-12-23T05:25:03.291Z,7.37
2022-12-23T05:27:30.956Z,7.83
2022-12-23T05:29:59.261Z,8.03
2022-12-23T05:32:28.311Z,7.60
2022-12-23T05:34:56.602Z,7.20
2022-12-23T05:37:24.424Z,8.03
2022-12-23T05:39:52.534Z,7.70
2022-12-23T05:42:20.208Z,7.37
2022-12-23T05:44:47.902Z,8.00
2022-12-23T05:47:16.110Z,6.70
2022-12-23T05:49:45.124Z,7.33
2022-12-23T05:52:13.239Z,7.20
2022-12-23T05:54:40.921Z,6.63
2022-12-23T05:57:08.605Z,7.10
2022-12-23T05:59:36.283Z,7.70
2022-12-23T06:02:07.908Z,7.23
2022-12-23T06:04:35.949Z,7.10
2022-12-23T06:07:05.970Z,7.30
2022-12-23T06:09:33.640Z,7.47
2022-12-23T06:12:01.735Z,6.77
2022-12-23T06:14:29.772Z,6.80
2022-12-23T06:16:57.563Z,6.93
2022-12-23T06:19:26.092Z,6.87
2022-12-23T06:21:53.799Z,7.10
2022-12-23T06:24:23.303Z,6.63
2022-12-23T06:26:56.761Z,7.10
2022-12-23T06:29:25.160Z,7.10
2022-12-23T06:31:52.861Z,7.20
2022-12-23T06:34:20.821Z,6.87
2022-12-23T06:36:48.652Z,7.20
2022-12-23T06:39:16.379Z,7.17
2022-12-23T06:41:45.500Z,6.43
2022-12-23T06:44:13.312Z,6.70
2022-12-23T06:46:41.472Z,6.50
2022-12-23T06:49:13.189Z,6.10
2022-12-23T06:51:41.562Z,7.13
2022-12-23T06:54:10.813Z,6.30
2022-12-23T06:56:39.362Z,6.70
2022-12-23T06:59:08.625Z,6.90
2022-12-23T07:01:36.626Z,7.10
2022-12-23T07:04:04.583Z,6.13
2022-12-23T07:06:32.521Z,6.70
2022-12-23T07:09:00.463Z,6.90
2022-12-23T07:11:28.562Z,6.80
2022-12-23T07:13:56.248Z,6.47
2022-12-23T07:16:25.316Z,6.07
2022-12-23T07:18:53.021Z,6.80
2022-12-23T07:21:28.635Z,6.00
2022-12-23T07:23:57.741Z,6.67
2022-12-23T07:26:25.672Z,6.83
2022-12-23T07:28:54.145Z,6.70
2022-12-23T07:31:22.135Z,6.30
2022-12-23T07:33:51.945Z,5.90
2022-12-23T07:36:19.837Z,5.93
2022-12-23T07:38:50.918Z,5.90
2022-12-23T07:41:18.832Z,6.40
2022-12-23T07:43:46.856Z,5.90
2022-12-23T07:46:14.772Z,6.37
2022-12-23T07:48:42.911Z,6.20
2022-12-23T07:51:12.237Z,6.40
2022-12-23T07:53:40.226Z,6.07
2022-12-23T07:56:09.087Z,6.40
2022-12-23T07:58:36.944Z,6.30
2022-12-23T08:01:06.724Z,5.53
2022-12-23T08:03:34.820Z,6.60
2022-12-23T08:06:03.747Z,6.43
2022-12-23T08:08:32.800Z,6.00
2022-12-23T08:11:01.725Z,6.20
2022-12-23T08:13:29.585Z,6.60
2022-12-23T08:15:57.748Z,5.77
2022-12-23T08:18:26.146Z,6.00
2022-12-23T08:20:57.325Z,6.50
2022-12-23T08:23:26.020Z,6.20
2022-12-23T08:26:01.679Z,6.20
2022-12-23T08:28:29.861Z,5.70
2022-12-23T08:31:03.599Z,5.83
2022-12-23T08:33:31.952Z,5.97
2022-12-23T08:35:59.806Z,6.10
2022-12-23T08:38:27.779Z,6.03
2022-12-23T08:40:55.638Z,5.77
2022-12-23T08:43:28.827Z,6.53
2022-12-23T08:46:00.226Z,6.03
2022-12-23T08:48:28.010Z,5.80
2022-12-23T08:50:56.431Z,5.43
2022-12-23T08:53:24.116Z,5.90
2022-12-23T08:55:51.841Z,5.30
2022-12-23T08:58:19.541Z,5.97
2022-12-23T09:00:48.584Z,5.80
2022-12-23T09:03:16.920Z,5.67
2022-12-23T09:05:45.063Z,6.10
2022-12-23T09:08:13.330Z,5.70
2022-12-23T09:10:42.748Z,5.67
2022-12-23T09:13:14.941Z,5.23
2022-12-23T09:15:46.197Z,5.70
2022-12-23T09:18:15.906Z,6.20
2022-12-23T09:20:43.767Z,5.77
2022-12-23T09:23:11.679Z,5.97
2022-12-23T09:25:39.470Z,5.60
2022-12-23T09:28:08.266Z,5.43
2022-12-23T09:30:35.953Z,5.07
2022-12-23T09:33:03.671Z,5.10
2022-12-23T09:35:33.289Z,5.20
2022-12-23T09:38:00.978Z,5.27
2022-12-23T09:40:29.889Z,5.30
2022-12-23T09:43:03.949Z,5.57
2022-12-23T09:45:49.607Z,5.67
2022-12-23T09:48:22.529Z,5.80
2022-12-23T09:50:51.558Z,5.53
2022-12-23T09:53:20.287Z,5.80
2022-12-23T09:55:50.988Z,6.00
2022-12-23T09:58:23.097Z,6.30
2022-12-23T10:00:58.546Z,6.60
2022-12-23T10:03:29.102Z,6.67
2022-12-23T10:06:01.909Z,6.53
2022-12-23T10:08:32.026Z,7.17
2022-12-23T10:11:01.271Z,6.90
2022-12-23T10:13:29.664Z,6.40
2022-12-23T10:15:59.271Z,6.77
2022-12-23T10:18:29.385Z,6.83
2022-12-23T10:21:03.176Z,6.97
2022-12-23T10:23:32.480Z,7.03
2022-12-23T10:26:00.225Z,15.70
2022-12-23T10:28:29.833Z,16.37
2022-12-23T10:33:56.053Z,15.77
2022-12-23T10:36:30.205Z,16.37
2022-12-23T10:39:02.416Z,16.40
2022-12-23T10:41:35.228Z,15.80
2022-12-23T10:44:41.853Z,14.53
2022-12-23T10:47:15.514Z,14.17
2022-12-23T10:49:47.859Z,14.40
2022-12-23T10:52:19.515Z,14.27
2022-12-23T10:54:47.737Z,14.07
2022-12-23T10:57:16.503Z,13.03
2022-12-23T10:59:44.353Z,12.83
2022-12-23T11:02:36.980Z,13.60
2022-12-23T11:05:06.470Z,13.17
2022-12-23T11:07:45.059Z,13.00
2022-12-23T11:10:18.946Z,11.90
2022-12-23T11:12:49.273Z,12.23
2022-12-23T11:15:31.392Z,10.90
2022-12-23T11:18:02.089Z,10.27
2022-12-23T11:20:30.385Z,10.10
2022-12-23T11:23:02.202Z,10.10
2022-12-23T11:25:32.723Z,9.73
2022-12-23T11:28:01.553Z,10.30
2022-12-23T11:30:29.986Z,10.77
2022-12-23T11:32:59.646Z,10.20
2022-12-23T11:35:28.577Z,10.67
2022-12-23T11:37:56.572Z,10.83
2022-12-23T11:40:26.976Z,10.93
2022-12-23T11:42:57.139Z,10.27
2022-12-23T11:45:27.685Z,10.57
2022-12-23T11:47:58.861Z,11.47
2022-12-23T11:50:38.029Z,11.87
2022-12-23T11:53:14.183Z,10.93
2022-12-23T11:55:49.487Z,10.73
2022-12-23T11:58:22.603Z,11.30
2022-12-23T12:00:56.493Z,10.93
2022-12-23T12:03:28.956Z,10.97
2022-12-23T12:05:59.100Z,11.33
2022-12-23T12:08:30.211Z,11.30
2022-12-23T12:11:04.240Z,11.50
2022-12-23T12:13:33.993Z,11.57
2022-12-23T12:16:09.127Z,12.93
2022-12-23T12:18:37.523Z,13.33
2022-12-23T12:21:07.080Z,11.40
2022-12-23T12:23:41.578Z,12.30
2022-12-23T12:26:14.660Z,12.27
2022-12-23T12:28:44.326Z,12.80
2022-12-23T12:31:16.928Z,13.73
2022-12-23T12:33:49.512Z,15.30
2022-12-23T12:36:19.990Z,14.50
2022-12-23T12:38:48.407Z,14.90
2022-12-23T12:41:18.956Z,15.07
2022-12-23T12:43:48.360Z,16.67
2022-12-23T12:46:23.669Z,16.20
2022-12-23T12:48:55.688Z,16.87
2022-12-23T12:51:29.179Z,18.63
2022-12-23T12:54:05.849Z,20.13
2022-12-23T12:56:41.629Z,18.70
2022-12-23T12:59:15.140Z,20.30
2022-12-23T13:01:51.289Z,22.13
2022-12-23T13:04:48.344Z,22.47
2022-12-23T13:07:21.233Z,22.67
2022-12-23T13:09:55.369Z,22.43
2022-12-23T13:12:32.768Z,23.17
2022-12-23T13:15:05.072Z,23.97
2022-12-23T13:17:35.731Z,22.73
2022-12-23T13:20:12.866Z,23.30
2022-12-23T13:22:41.742Z,22.80
2022-12-23T13:25:14.945Z,22.17
2022-12-23T13:27:47.496Z,21.90
2022-12-23T13:30:18.060Z,21.83
2022-12-23T13:33:08.716Z,21.17
2022-12-23T13:35:59.721Z,20.97
2022-12-23T13:38:43.738Z,20.17
2022-12-23T13:41:17.886Z,18.30
2022-12-23T13:43:50.006Z,16.67
2022-12-23T13:46:24.380Z,16.80
2022-12-23T13:48:57.601Z,17.20
2022-12-23T13:51:29.073Z,18.67
2022-12-23T13:54:04.526Z,17.20
2022-12-23T13:56:37.105Z,18.37
2022-12-23T13:59:11.314Z,17.20
2022-12-23T14:01:46.204Z,17.20
2022-12-23T14:04:37.020Z,17.47
2022-12-23T14:07:08.244Z,16.77
2022-12-23T14:13:05.009Z,16.50
2022-12-23T14:16:29.643Z,15.70
2022-12-23T14:19:35.656Z,15.17
2022-12-23T14:22:44.362Z,15.10
2022-12-23T14:25:54.363Z,14.63
2022-12-23T14:29:01.577Z,14.50
2022-12-23T14:31:55.352Z,14.53
2022-12-23T14:34:47.418Z,14.57
2022-12-23T14:37:58.299Z,13.40
2022-12-23T14:40:51.851Z,13.33
2022-12-23T14:43:52.938Z,12.73
2022-12-23T14:46:57.959Z,12.00
2022-12-23T14:49:54.056Z,12.07
2022-12-23T14:53:00.989Z,11.87
2022-12-23T14:55:56.484Z,12.60
2022-12-23T14:59:02.039Z,11.80
2022-12-23T15:01:45.088Z,11.33
2022-12-23T15:04:18.249Z,11.53
2022-12-23T15:06:47.682Z,10.53
2022-12-23T15:09:23.554Z,9.20
2022-12-23T15:11:57.179Z,9.50
2022-12-23T15:14:40.014Z,8.60
2022-12-23T15:17:31.836Z,8.03
2022-12-23T15:20:20.379Z,8.90
2022-12-23T15:23:01.858Z,7.97
2022-12-23T15:25:43.286Z,8.97
2022-12-23T15:28:22.383Z,8.50
2022-12-23T15:30:59.359Z,7.97
2022-12-23T15:34:03.031Z,7.10
2022-12-23T15:37:12.288Z,7.97
2022-12-23T15:40:04.470Z,8.20
2022-12-23T15:43:08.758Z,7.70
2022-12-23T15:45:42.218Z,6.60
2022-12-23T15:48:24.454Z,6.10
2022-12-23T15:50:55.954Z,5.87
2022-12-23T15:53:39.038Z,6.00
2022-12-23T15:56:08.746Z,7.63
2022-12-23T15:58:37.976Z,11.87
2022-12-23T16:01:06.652Z,12.50
2022-12-23T16:03:35.824Z,16.17
2022-12-23T16:06:12.558Z,17.10
2022-12-23T16:08:40.845Z,17.83
2022-12-23T16:11:15.410Z,18.30
2022-12-23T16:13:58.514Z,19.20
2022-12-23T16:16:35.364Z,25.80
2022-12-23T16:19:03.158Z,24.73
2022-12-23T16:21:33.553Z,21.27
2022-12-23T16:24:01.309Z,23.17
2022-12-23T16:26:29.472Z,21.47
2022-12-23T16:28:59.494Z,21.30
2022-12-23T16:31:27.498Z,22.60
2022-12-23T16:33:56.891Z,20.53
2022-12-23T16:36:35.509Z,23.10
2022-12-23T16:39:12.872Z,20.80
2022-12-23T16:41:40.754Z,22.40
2022-12-23T16:44:08.544Z,21.27
2022-12-23T16:46:38.235Z,21.00
2022-12-23T16:49:08.218Z,21.07
2022-12-23T16:51:37.409Z,21.37
2022-12-23T16:54:05.442Z,20.57
2022-12-23T16:56:35.470Z,21.20
2022-12-23T16:59:03.576Z,20.07
2022-12-23T17:01:33.523Z,19.37
2022-12-23T17:04:12.193Z,20.33
2022-12-23T17:06:44.497Z,19.63
2022-12-23T17:09:14.090Z,21.23
2022-12-23T17:11:48.331Z,20.73
2022-12-23T17:14:18.979Z,20.23
2022-12-23T17:16:47.378Z,21.83
2022-12-23T17:19:20.636Z,24.30
2022-12-23T17:22:06.133Z,22.30
2022-12-23T17:24:39.378Z,21.53
2022-12-23T17:27:15.536Z,21.37
2022-12-23T17:29:49.657Z,21.23
2022-12-23T17:32:36.255Z,20.97
2022-12-23T17:35:13.418Z,19.37
2022-12-23T17:37:47.525Z,17.37
2022-12-23T17:40:18.182Z,18.23
2022-12-23T17:42:49.705Z,18.03
2022-12-23T17:45:33.848Z,17.43
2022-12-23T17:48:05.749Z,22.07
2022-12-23T17:50:40.057Z,20.33
2022-12-23T17:53:20.134Z,19.77
2022-12-23T17:55:53.088Z,17.70
2022-12-23T17:58:23.544Z,17.60
2022-12-23T18:00:55.537Z,17.03
2022-12-23T18:03:35.125Z,16.80
2022-12-23T18:06:09.390Z,15.70
2022-12-23T18:08:49.148Z,15.37
2022-12-23T18:11:31.436Z,16.10
2022-12-23T18:14:15.220Z,15.33
2022-12-23T18:16:50.819Z,15.43
2022-12-23T18:19:21.018Z,15.97
2022-12-23T18:21:56.765Z,15.30
2022-12-23T18:24:42.263Z,14.33
2022-12-23T18:27:16.416Z,15.30
2022-12-23T18:29:54.479Z,14.50
2022-12-23T18:32:33.129Z,15.20
2022-12-23T18:35:03.058Z,13.73
2022-12-23T18:37:31.833Z,14.37
2022-12-23T18:40:08.363Z,14.40
2022-12-23T18:42:44.120Z,14.90
2022-12-23T18:45:21.392Z,14.03
2022-12-23T18:48:07.248Z,14.27
2022-12-23T18:51:00.199Z,14.53
2022-12-23T18:53:51.469Z,12.70
2022-12-23T18:56:34.897Z,12.50
2022-12-23T18:59:17.696Z,12.87
2022-12-23T19:01:54.595Z,13.90
2022-12-23T19:04:37.307Z,12.53
2022-12-23T19:07:15.336Z,14.00
2022-12-23T19:10:08.214Z,13.37
2022-12-23T19:12:58.255Z,12.90
2022-12-23T19:15:28.844Z,12.83
2022-12-23T19:17:59.923Z,13.20
2022-12-23T19:20:36.673Z,11.00
2022-12-23T19:23:05.536Z,11.07
2022-12-23T19:25:35.582Z,11.80
2022-12-23T19:28:05.911Z,11.33
2022-12-23T19:30:40.723Z,10.60
2022-12-23T19:33:09.028Z,12.90
2022-12-23T19:35:40.479Z,14.90
2022-12-23T19:38:08.900Z,14.50
2022-12-23T19:40:41.834Z,14.00
2022-12-23T19:43:16.812Z,13.10
2022-12-23T19:45:46.844Z,11.53
2022-12-23T19:48:18.403Z,12.20
2022-12-23T19:51:02.287Z,12.37
2022-12-23T19:53:37.333Z,12.60
2022-12-23T19:56:13.422Z,11.87
2022-12-23T19:58:47.966Z,11.97
2022-12-23T20:01:25.806Z,11.90
2022-12-23T20:03:55.162Z,11.60
2022-12-23T20:06:38.730Z,10.90
2022-12-23T20:09:07.369Z,11.20
2022-12-23T20:11:37.513Z,10.90
2022-12-23T20:14:07.593Z,10.77
2022-12-23T20:16:35.946Z,10.93
2022-12-23T20:19:08.586Z,11.30
2022-12-23T20:21:37.591Z,10.97
2022-12-23T20:24:09.712Z,11.30
2022-12-23T20:26:41.042Z,10.40
2022-12-23T20:29:11.163Z,10.13
2022-12-23T20:31:41.191Z,10.47
2022-12-23T20:34:16.669Z,10.63
2022-12-23T20:36:45.330Z,9.80
2022-12-23T20:39:35.836Z,11.13
2022-12-23T20:42:06.592Z,10.93
2022-12-23T20:44:42.504Z,12.20
2022-12-23T20:47:11.658Z,11.10
2022-12-23T20:49:40.581Z,10.80
2022-12-23T20:52:09.607Z,10.10
2022-12-23T20:54:43.656Z,11.03
2022-12-23T20:57:14.913Z,9.80
2022-12-23T20:59:45.156Z,10.80
2022-12-23T21:02:16.248Z,9.70
2022-12-23T21:04:44.778Z,9.90
2022-12-23T21:07:13.058Z,10.10
2022-12-23T21:09:41.756Z,9.20
2022-12-23T21:12:10.312Z,9.17
2022-12-23T21:14:43.461Z,9.53
2022-12-23T21:17:16.284Z,8.37
2022-12-23T21:19:44.812Z,8.70
2022-12-23T21:22:20.981Z,8.80
2022-12-23T21:24:51.713Z,9.20
2022-12-23T21:27:25.213Z,8.50
2022-12-23T21:29:55.938Z,9.10
2022-12-23T21:32:29.985Z,8.40
2022-12-23T21:35:02.932Z,9.40
2022-12-23T21:37:34.854Z,8.13
2022-12-23T21:40:03.311Z,8.70
2022-12-23T21:42:33.965Z,7.70
2022-12-23T21:45:02.996Z,7.93
2022-12-23T21:47:33.166Z,8.50
2022-12-23T21:50:03.708Z,10.13
2022-12-23T21:52:38.252Z,14.50
2022-12-23T21:55:07.700Z,14.70
2022-12-23T21:57:37.553Z,12.47
2022-12-23T22:00:06.927Z,11.80
2022-12-23T22:02:39.395Z,11.43
2022-12-23T22:05:09.056Z,10.33
2022-12-23T22:07:37.280Z,9.40
2022-12-23T22:10:05.874Z,9.80
2022-12-23T22:12:33.973Z,8.20
2022-12-23T22:15:05.081Z,9.07
2022-12-23T22:17:39.126Z,8.10
2022-12-23T22:20:08.296Z,7.80
2022-12-23T22:22:36.374Z,7.87
2022-12-23T22:25:04.407Z,7.20
2022-12-23T22:27:32.903Z,8.10
2022-12-23T22:30:00.894Z,6.67
2022-12-23T22:32:28.861Z,7.90
2022-12-23T22:34:58.763Z,8.57
2022-12-23T22:37:26.540Z,7.70
2022-12-23T22:39:54.517Z,7.90
2022-12-23T22:42:22.297Z,8.03
2022-12-23T22:44:50.217Z,7.50
2022-12-23T22:47:18.228Z,7.03
2022-12-23T22:49:46.519Z,7.00
2022-12-23T22:52:15.994Z,8.60
2022-12-23T22:54:43.887Z,9.97
2022-12-23T22:57:11.668Z,8.83
2022-12-23T22:59:39.380Z,8.47
2022-12-23T23:02:07.388Z,8.43
2022-12-23T23:04:35.414Z,7.90
2022-12-23T23:07:03.486Z,7.70
2022-12-23T23:09:33.293Z,7.43
2022-12-23T23:12:06.933Z,7.23
2022-12-23T23:14:55.061Z,7.43
2022-12-23T23:17:24.114Z,7.50
2022-12-23T23:19:52.176Z,6.97
2022-12-23T23:22:20.932Z,7.10
2022-12-23T23:24:50.056Z,7.13
2022-12-23T23:27:18.884Z,7.57
2022-12-23T23:29:47.024Z,7.17
2022-12-23T23:32:15.603Z,6.00
2022-12-23T23:34:43.787Z,7.60
2022-12-23T23:37:11.905Z,7.53
2022-12-23T23:39:39.962Z,7.00
2022-12-23T23:42:09.833Z,7.23
2022-12-23T23:44:38.240Z,7.63
2022-12-23T23:47:06.278Z,6.97
2022-12-23T23:49:34.701Z,9.30
2022-12-23T23:52:02.678Z,11.13
2022-12-23T23:54:31.824Z,9.73
2022-12-23T23:56:59.800Z,9.90
2022-12-23T23:59:29.702Z,9.27
